Terminal Aerodrome Forecast
Issued by NWS

Home | Current Version | Previous Version | Text Only | Print | Product List | Glossary On
Versions: 1 2 3 4 5 6 7 8 9 10 11 12 13 14 15 16 17 18 19 20 21
535
FTAK31 PAJN 141126
TAFAYA
TAF
PAYA 141126Z 1412/1512 09007KT 6SM -SHRA OVC025
      TEMPO 1412/1415 5SM -SHRA BR BKN015 OVC020
     FM141500 12006KT 5SM -SHRA BR FEW010 BKN015 OVC025
     FM150000 11003KT P6SM -SHRA SCT025 BKN040 OVC060
     FM150600 11003KT 6SM -SHRA SCT020 BKN030 OVC050
      AMD LTD TO CLD VIS AND WIND 1501/1509=

USA.gov is the U.S. government's official web portal to all federal, state and local government web resources and services.